sensor_id;sensor_type;location;lat;lon;timestamp;temperature;humidity
7720;DHT22;3902;49.474;8.616;2022-09-23T00:01:31;15.10;99.80
7720;DHT22;3902;49.474;8.616;2022-09-23T00:03:58;15.00;99.90
7720;DHT22;3902;49.474;8.616;2022-09-23T00:06:25;15.00;99.90
7720;DHT22;3902;49.474;8.616;2022-09-23T00:08:53;15.00;99.90
7720;DHT22;3902;49.474;8.616;2022-09-23T00:11:21;14.90;99.90
7720;DHT22;3902;49.474;8.616;2022-09-23T00:13:49;14.90;99.90
7720;DHT22;3902;49.474;8.616;2022-09-23T00:16:18;14.90;99.90
7720;DHT22;3902;49.474;8.616;2022-09-23T00:18:45;14.80;99.90
7720;DHT22;3902;49.474;8.616;2022-09-23T00:21:12;14.80;99.90
7720;DHT22;3902;49.474;8.616;2022-09-23T00:23:39;14.70;99.90
7720;DHT22;3902;49.474;8.616;2022-09-23T00:26:07;14.70;99.90
7720;DHT22;3902;49.474;8.616;2022-09-23T00:28:33;14.60;99.90
7720;DHT22;3902;49.474;8.616;2022-09-23T00:31:04;14.60;99.90
7720;DHT22;3902;49.474;8.616;2022-09-23T00:33:29;14.50;99.90
7720;DHT22;3902;49.474;8.616;2022-09-23T00:35:59;14.50;99.90
7720;DHT22;3902;49.474;8.616;2022-09-23T00:38:26;14.40;99.90
7720;DHT22;3902;49.474;8.616;2022-09-23T00:40:52;14.40;99.90
7720;DHT22;3902;49.474;8.616;2022-09-23T00:43:17;14.30;99.90
7720;DHT22;3902;49.474;8.616;2022-09-23T00:45:46;14.30;99.90
7720;DHT22;3902;49.474;8.616;2022-09-23T00:48:16;14.20;99.90
7720;DHT22;3902;49.474;8.616;2022-09-23T00:50:44;14.20;99.90
7720;DHT22;3902;49.474;8.616;2022-09-23T00:53:12;14.20;99.90
7720;DHT22;3902;49.474;8.616;2022-09-23T00:55:53;14.20;99.90
7720;DHT22;3902;49.474;8.616;2022-09-23T00:58:26;14.20;99.90
7720;DHT22;3902;49.474;8.616;2022-09-23T01:00:53;14.10;99.90
7720;DHT22;3902;49.474;8.616;2022-09-23T01:03:19;14.00;99.90
7720;DHT22;3902;49.474;8.616;2022-09-23T01:05:47;14.00;99.90
7720;DHT22;3902;49.474;8.616;2022-09-23T01:08:13;14.00;99.90
7720;DHT22;3902;49.474;8.616;2022-09-23T01:11:01;13.90;99.90
7720;DHT22;3902;49.474;8.616;2022-09-23T01:13:39;13.90;99.90
7720;DHT22;3902;49.474;8.616;2022-09-23T01:16:19;13.90;99.90
7720;DHT22;3902;49.474;8.616;2022-09-23T01:19:20;13.80;99.90
7720;DHT22;3902;49.474;8.616;2022-09-23T01:22:15;13.80;99.90
7720;DHT22;3902;49.474;8.616;2022-09-23T01:24:53;13.80;99.90
7720;DHT22;3902;49.474;8.616;2022-09-23T01:30:41;13.70;99.90
7720;DHT22;3902;49.474;8.616;2022-09-23T01:39:00;13.60;99.90
7720;DHT22;3902;49.474;8.616;2022-09-23T01:47:12;13.50;99.90
7720;DHT22;3902;49.474;8.616;2022-09-23T01:52:30;13.40;99.90
7720;DHT22;3902;49.474;8.616;2022-09-23T01:55:39;13.40;99.90
7720;DHT22;3902;49.474;8.616;2022-09-23T01:58:06;13.40;99.90
7720;DHT22;3902;49.474;8.616;2022-09-23T02:00:39;13.30;99.90
7720;DHT22;3902;49.474;8.616;2022-09-23T02:03:14;13.30;99.90
7720;DHT22;3902;49.474;8.616;2022-09-23T02:05:50;13.30;99.90
7720;DHT22;3902;49.474;8.616;2022-09-23T02:08:40;13.20;99.90
7720;DHT22;3902;49.474;8.616;2022-09-23T02:11:09;13.20;99.90
7720;DHT22;3902;49.474;8.616;2022-09-23T02:13:59;13.20;99.90
7720;DHT22;3902;49.474;8.616;2022-09-23T02:16:27;13.10;99.90
7720;DHT22;3902;49.474;8.616;2022-09-23T02:19:03;13.10;99.90
7720;DHT22;3902;49.474;8.616;2022-09-23T02:21:37;13.10;99.90
7720;DHT22;3902;49.474;8.616;2022-09-23T02:24:26;13.00;99.90
7720;DHT22;3902;49.474;8.616;2022-09-23T02:26:57;13.00;99.90
7720;DHT22;3902;49.474;8.616;2022-09-23T02:29:32;13.00;99.90
7720;DHT22;3902;49.474;8.616;2022-09-23T02:34:50;12.90;99.90
7720;DHT22;3902;49.474;8.616;2022-09-23T02:40:52;12.80;99.90
7720;DHT22;3902;49.474;8.616;2022-09-23T02:43:25;12.80;99.90
7720;DHT22;3902;49.474;8.616;2022-09-23T02:45:54;12.80;99.90
7720;DHT22;3902;49.474;8.616;2022-09-23T02:48:33;12.70;99.90
7720;DHT22;3902;49.474;8.616;2022-09-23T02:50:59;12.70;99.90
7720;DHT22;3902;49.474;8.616;2022-09-23T02:53:27;12.70;99.90
7720;DHT22;3902;49.474;8.616;2022-09-23T02:55:53;12.70;99.90
7720;DHT22;3902;49.474;8.616;2022-09-23T02:58:18;12.60;99.90
7720;DHT22;3902;49.474;8.616;2022-09-23T03:01:11;12.60;99.90
7720;DHT22;3902;49.474;8.616;2022-09-23T03:04:04;12.60;99.90
7720;DHT22;3902;49.474;8.616;2022-09-23T03:06:59;12.60;99.90
7720;DHT22;3902;49.474;8.616;2022-09-23T03:09:42;12.50;99.90
7720;DHT22;3902;49.474;8.616;2022-09-23T03:14:45;12.50;99.90
7720;DHT22;3902;49.474;8.616;2022-09-23T03:17:24;12.40;99.90
7720;DHT22;3902;49.474;8.616;2022-09-23T03:20:14;12.40;99.90
7720;DHT22;3902;49.474;8.616;2022-09-23T03:22:45;12.40;99.90
7720;DHT22;3902;49.474;8.616;2022-09-23T03:25:17;12.40;99.90
7720;DHT22;3902;49.474;8.616;2022-09-23T03:27:44;12.30;99.90
7720;DHT22;3902;49.474;8.616;2022-09-23T03:30:10;12.30;99.90
7720;DHT22;3902;49.474;8.616;2022-09-23T03:32:37;12.30;99.90
7720;DHT22;3902;49.474;8.616;2022-09-23T03:35:04;12.30;99.90
7720;DHT22;3902;49.474;8.616;2022-09-23T03:37:58;12.30;99.90
7720;DHT22;3902;49.474;8.616;2022-09-23T03:40:31;12.20;99.90
7720;DHT22;3902;49.474;8.616;2022-09-23T03:42:59;12.20;99.90
7720;DHT22;3902;49.474;8.616;2022-09-23T03:45:29;12.20;99.90
7720;DHT22;3902;49.474;8.616;2022-09-23T03:47:56;12.20;99.90
7720;DHT22;3902;49.474;8.616;2022-09-23T03:50:21;12.20;99.90
7720;DHT22;3902;49.474;8.616;2022-09-23T03:52:47;12.20;99.90
7720;DHT22;3902;49.474;8.616;2022-09-23T03:55:15;12.20;99.90
7720;DHT22;3902;49.474;8.616;2022-09-23T03:57:41;12.20;99.90
7720;DHT22;3902;49.474;8.616;2022-09-23T04:00:08;12.10;99.90
7720;DHT22;3902;49.474;8.616;2022-09-23T04:02:34;12.10;99.90
7720;DHT22;3902;49.474;8.616;2022-09-23T04:04:59;12.10;99.90
7720;DHT22;3902;49.474;8.616;2022-09-23T04:07:25;12.10;99.90
7720;DHT22;3902;49.474;8.616;2022-09-23T04:09:51;12.10;99.90
7720;DHT22;3902;49.474;8.616;2022-09-23T04:12:17;12.10;99.90
7720;DHT22;3902;49.474;8.616;2022-09-23T04:14:43;12.10;99.90
7720;DHT22;3902;49.474;8.616;2022-09-23T04:17:10;12.10;99.90
7720;DHT22;3902;49.474;8.616;2022-09-23T04:19:35;12.10;99.90
7720;DHT22;3902;49.474;8.616;2022-09-23T04:22:01;12.00;99.90
7720;DHT22;3902;49.474;8.616;2022-09-23T04:24:27;12.10;99.90
7720;DHT22;3902;49.474;8.616;2022-09-23T04:26:54;12.00;99.90
7720;DHT22;3902;49.474;8.616;2022-09-23T04:29:20;12.00;99.90
7720;DHT22;3902;49.474;8.616;2022-09-23T04:31:46;12.00;99.90
7720;DHT22;3902;49.474;8.616;2022-09-23T04:34:12;11.90;99.90
7720;DHT22;3902;49.474;8.616;2022-09-23T04:36:38;11.90;99.90
7720;DHT22;3902;49.474;8.616;2022-09-23T04:39:04;11.90;99.90
7720;DHT22;3902;49.474;8.616;2022-09-23T04:41:30;11.90;99.90
7720;DHT22;3902;49.474;8.616;2022-09-23T04:43:55;11.90;99.90
7720;DHT22;3902;49.474;8.616;2022-09-23T04:46:22;11.80;99.90
7720;DHT22;3902;49.474;8.616;2022-09-23T04:48:48;11.80;99.90
7720;DHT22;3902;49.474;8.616;2022-09-23T04:51:16;11.80;99.90
7720;DHT22;3902;49.474;8.616;2022-09-23T04:53:44;11.80;99.90
7720;DHT22;3902;49.474;8.616;2022-09-23T04:56:15;11.70;99.90
7720;DHT22;3902;49.474;8.616;2022-09-23T04:58:41;11.70;99.90
7720;DHT22;3902;49.474;8.616;2022-09-23T05:01:13;11.70;99.90
7720;DHT22;3902;49.474;8.616;2022-09-23T05:03:39;11.70;99.90
7720;DHT22;3902;49.474;8.616;2022-09-23T05:06:05;11.70;99.90
7720;DHT22;3902;49.474;8.616;2022-09-23T05:08:32;11.70;99.90
7720;DHT22;3902;49.474;8.616;2022-09-23T05:10:58;11.60;99.90
7720;DHT22;3902;49.474;8.616;2022-09-23T05:13:24;11.60;99.90
7720;DHT22;3902;49.474;8.616;2022-09-23T05:15:56;11.70;99.90
7720;DHT22;3902;49.474;8.616;2022-09-23T05:18:23;11.60;99.90
7720;DHT22;3902;49.474;8.616;2022-09-23T05:20:55;11.60;99.90
7720;DHT22;3902;49.474;8.616;2022-09-23T05:23:21;11.60;99.90
7720;DHT22;3902;49.474;8.616;2022-09-23T05:25:47;11.60;99.90
7720;DHT22;3902;49.474;8.616;2022-09-23T05:28:14;11.60;99.90
7720;DHT22;3902;49.474;8.616;2022-09-23T05:30:44;11.60;99.90
7720;DHT22;3902;49.474;8.616;2022-09-23T05:33:11;11.60;99.90
7720;DHT22;3902;49.474;8.616;2022-09-23T05:35:36;11.60;99.90
7720;DHT22;3902;49.474;8.616;2022-09-23T05:38:02;11.60;99.90
7720;DHT22;3902;49.474;8.616;2022-09-23T05:40:27;11.60;99.90
7720;DHT22;3902;49.474;8.616;2022-09-23T05:42:53;11.60;99.90
7720;DHT22;3902;49.474;8.616;2022-09-23T05:45:18;11.60;99.90
7720;DHT22;3902;49.474;8.616;2022-09-23T05:47:44;11.60;99.90
7720;DHT22;3902;49.474;8.616;2022-09-23T05:50:09;11.60;99.90
7720;DHT22;3902;49.474;8.616;2022-09-23T05:52:35;11.60;99.90
7720;DHT22;3902;49.474;8.616;2022-09-23T05:55:01;11.60;99.90
7720;DHT22;3902;49.474;8.616;2022-09-23T05:57:27;11.60;99.90
7720;DHT22;3902;49.474;8.616;2022-09-23T05:59:52;11.60;99.90
7720;DHT22;3902;49.474;8.616;2022-09-23T06:02:18;11.60;99.90
7720;DHT22;3902;49.474;8.616;2022-09-23T06:04:43;11.70;99.90
7720;DHT22;3902;49.474;8.616;2022-09-23T06:07:09;11.60;99.90
7720;DHT22;3902;49.474;8.616;2022-09-23T06:09:35;11.70;99.90
7720;DHT22;3902;49.474;8.616;2022-09-23T06:12:00;11.70;99.90
7720;DHT22;3902;49.474;8.616;2022-09-23T06:14:26;11.70;99.90
7720;DHT22;3902;49.474;8.616;2022-09-23T06:16:53;11.70;99.90
7720;DHT22;3902;49.474;8.616;2022-09-23T06:19:18;11.70;99.90
7720;DHT22;3902;49.474;8.616;2022-09-23T06:21:43;11.70;99.90
7720;DHT22;3902;49.474;8.616;2022-09-23T06:24:09;11.80;99.90
7720;DHT22;3902;49.474;8.616;2022-09-23T06:26:36;11.80;99.90
7720;DHT22;3902;49.474;8.616;2022-09-23T06:29:08;11.80;99.90
7720;DHT22;3902;49.474;8.616;2022-09-23T06:31:34;11.90;99.90
7720;DHT22;3902;49.474;8.616;2022-09-23T06:34:00;11.80;99.90
7720;DHT22;3902;49.474;8.616;2022-09-23T06:36:25;11.90;99.90
7720;DHT22;3902;49.474;8.616;2022-09-23T06:38:51;11.90;99.90
7720;DHT22;3902;49.474;8.616;2022-09-23T06:41:16;12.00;99.90
7720;DHT22;3902;49.474;8.616;2022-09-23T06:43:44;12.00;99.90
7720;DHT22;3902;49.474;8.616;2022-09-23T06:46:13;12.00;99.90
7720;DHT22;3902;49.474;8.616;2022-09-23T06:48:40;12.10;99.90
7720;DHT22;3902;49.474;8.616;2022-09-23T06:51:09;12.10;99.90
7720;DHT22;3902;49.474;8.616;2022-09-23T06:53:35;12.10;99.90
7720;DHT22;3902;49.474;8.616;2022-09-23T06:56:03;12.10;99.90
7720;DHT22;3902;49.474;8.616;2022-09-23T06:58:30;12.10;99.90
7720;DHT22;3902;49.474;8.616;2022-09-23T07:01:22;12.10;99.90
7720;DHT22;3902;49.474;8.616;2022-09-23T07:03:48;12.10;99.90
7720;DHT22;3902;49.474;8.616;2022-09-23T07:06:14;12.20;99.90
7720;DHT22;3902;49.474;8.616;2022-09-23T07:08:43;12.20;99.90
7720;DHT22;3902;49.474;8.616;2022-09-23T07:11:09;12.20;99.90
7720;DHT22;3902;49.474;8.616;2022-09-23T07:13:36;12.30;99.90
7720;DHT22;3902;49.474;8.616;2022-09-23T07:16:02;12.30;99.90
7720;DHT22;3902;49.474;8.616;2022-09-23T07:18:32;12.30;99.90
7720;DHT22;3902;49.474;8.616;2022-09-23T07:23:33;12.40;99.90
7720;DHT22;3902;49.474;8.616;2022-09-23T07:25:58;12.40;99.90
7720;DHT22;3902;49.474;8.616;2022-09-23T07:28:24;12.30;99.90
7720;DHT22;3902;49.474;8.616;2022-09-23T07:30:53;12.40;99.90
7720;DHT22;3902;49.474;8.616;2022-09-23T07:33:19;12.40;99.90
7720;DHT22;3902;49.474;8.616;2022-09-23T07:35:44;12.50;99.90
7720;DHT22;3902;49.474;8.616;2022-09-23T07:38:10;12.50;99.90
7720;DHT22;3902;49.474;8.616;2022-09-23T07:40:36;12.50;99.90
7720;DHT22;3902;49.474;8.616;2022-09-23T07:43:03;12.50;99.90
7720;DHT22;3902;49.474;8.616;2022-09-23T07:45:29;12.60;99.90
7720;DHT22;3902;49.474;8.616;2022-09-23T07:47:57;12.60;99.90
7720;DHT22;3902;49.474;8.616;2022-09-23T07:50:22;12.60;99.90
7720;DHT22;3902;49.474;8.616;2022-09-23T07:52:48;12.70;99.90
7720;DHT22;3902;49.474;8.616;2022-09-23T07:55:17;12.70;99.90
7720;DHT22;3902;49.474;8.616;2022-09-23T07:57:44;12.70;99.90
7720;DHT22;3902;49.474;8.616;2022-09-23T08:00:10;12.70;99.90
7720;DHT22;3902;49.474;8.616;2022-09-23T08:02:36;12.80;99.90
7720;DHT22;3902;49.474;8.616;2022-09-23T08:05:01;12.80;99.90
7720;DHT22;3902;49.474;8.616;2022-09-23T08:07:27;12.80;99.90
7720;DHT22;3902;49.474;8.616;2022-09-23T08:09:53;12.80;99.90
7720;DHT22;3902;49.474;8.616;2022-09-23T08:12:18;12.90;99.90
7720;DHT22;3902;49.474;8.616;2022-09-23T08:14:44;13.00;99.90
7720;DHT22;3902;49.474;8.616;2022-09-23T08:17:12;13.00;99.90
7720;DHT22;3902;49.474;8.616;2022-09-23T08:19:38;12.90;99.90
7720;DHT22;3902;49.474;8.616;2022-09-23T08:22:04;13.00;99.90
7720;DHT22;3902;49.474;8.616;2022-09-23T08:24:29;13.00;99.90
7720;DHT22;3902;49.474;8.616;2022-09-23T08:26:56;13.00;99.90
7720;DHT22;3902;49.474;8.616;2022-09-23T08:29:24;13.00;99.90
7720;DHT22;3902;49.474;8.616;2022-09-23T08:31:50;13.00;99.90
7720;DHT22;3902;49.474;8.616;2022-09-23T08:34:17;13.10;99.90
7720;DHT22;3902;49.474;8.616;2022-09-23T08:36:44;13.10;99.90
7720;DHT22;3902;49.474;8.616;2022-09-23T08:39:13;13.20;99.90
7720;DHT22;3902;49.474;8.616;2022-09-23T08:45:10;13.30;99.90
7720;DHT22;3902;49.474;8.616;2022-09-23T08:47:14;13.40;99.90
7720;DHT22;3902;49.474;8.616;2022-09-23T08:52:56;13.50;99.90
7720;DHT22;3902;49.474;8.616;2022-09-23T08:55:31;13.60;99.90
7720;DHT22;3902;49.474;8.616;2022-09-23T08:58:27;13.70;99.90
7720;DHT22;3902;49.474;8.616;2022-09-23T09:01:11;13.80;99.90
7720;DHT22;3902;49.474;8.616;2022-09-23T09:03:44;13.90;99.90
7720;DHT22;3902;49.474;8.616;2022-09-23T09:06:38;13.90;99.90
7720;DHT22;3902;49.474;8.616;2022-09-23T09:09:09;14.00;99.90
7720;DHT22;3902;49.474;8.616;2022-09-23T09:11:42;14.10;99.90
7720;DHT22;3902;49.474;8.616;2022-09-23T09:19:20;14.20;99.90
7720;DHT22;3902;49.474;8.616;2022-09-23T09:21:52;14.30;99.90
7720;DHT22;3902;49.474;8.616;2022-09-23T09:24:31;14.40;99.90
7720;DHT22;3902;49.474;8.616;2022-09-23T09:27:09;14.50;99.90
7720;DHT22;3902;49.474;8.616;2022-09-23T09:29:39;14.60;99.90
7720;DHT22;3902;49.474;8.616;2022-09-23T09:32:39;14.70;99.90
7720;DHT22;3902;49.474;8.616;2022-09-23T09:35:41;14.80;99.90
7720;DHT22;3902;49.474;8.616;2022-09-23T09:38:11;14.90;99.90
7720;DHT22;3902;49.474;8.616;2022-09-23T09:40:40;14.90;99.90
7720;DHT22;3902;49.474;8.616;2022-09-23T09:43:06;15.00;99.90
7720;DHT22;3902;49.474;8.616;2022-09-23T09:48:14;15.10;99.90
7720;DHT22;3902;49.474;8.616;2022-09-23T09:50:48;15.20;99.90
7720;DHT22;3902;49.474;8.616;2022-09-23T09:53:19;15.30;99.90
7720;DHT22;3902;49.474;8.616;2022-09-23T09:56:06;15.40;99.90
7720;DHT22;3902;49.474;8.616;2022-09-23T09:58:47;15.50;99.90
7720;DHT22;3902;49.474;8.616;2022-09-23T10:03:48;15.70;99.90
7720;DHT22;3902;49.474;8.616;2022-09-23T10:06:17;15.70;99.90
7720;DHT22;3902;49.474;8.616;2022-09-23T10:09:03;15.90;99.90
7720;DHT22;3902;49.474;8.616;2022-09-23T10:11:30;15.90;99.90
7720;DHT22;3902;49.474;8.616;2022-09-23T10:14:00;16.00;99.90
7720;DHT22;3902;49.474;8.616;2022-09-23T10:16:32;16.00;99.90
7720;DHT22;3902;49.474;8.616;2022-09-23T10:18:59;16.20;99.90
7720;DHT22;3902;49.474;8.616;2022-09-23T10:21:31;16.20;99.90
7720;DHT22;3902;49.474;8.616;2022-09-23T10:23:59;16.30;99.90
7720;DHT22;3902;49.474;8.616;2022-09-23T10:26:30;16.50;99.90
7720;DHT22;3902;49.474;8.616;2022-09-23T10:28:57;16.50;99.90
7720;DHT22;3902;49.474;8.616;2022-09-23T10:31:34;16.60;99.90
7720;DHT22;3902;49.474;8.616;2022-09-23T10:34:02;16.70;99.90
7720;DHT22;3902;49.474;8.616;2022-09-23T10:36:30;16.80;99.90
7720;DHT22;3902;49.474;8.616;2022-09-23T10:38:59;16.90;99.90
7720;DHT22;3902;49.474;8.616;2022-09-23T10:42:01;17.00;99.90
7720;DHT22;3902;49.474;8.616;2022-09-23T10:50:46;17.60;99.90
7720;DHT22;3902;49.474;8.616;2022-09-23T11:06:27;23.60;99.80
7720;DHT22;3902;49.474;8.616;2022-09-23T11:09:05;24.40;97.70
7720;DHT22;3902;49.474;8.616;2022-09-23T11:14:43;25.90;92.20
7720;DHT22;3902;49.474;8.616;2022-09-23T11:17:35;26.30;92.20
7720;DHT22;3902;49.474;8.616;2022-09-23T11:20:20;26.60;87.50
7720;DHT22;3902;49.474;8.616;2022-09-23T11:31:31;28.10;87.40
7720;DHT22;3902;49.474;8.616;2022-09-23T11:34:33;28.70;85.10
7720;DHT22;3902;49.474;8.616;2022-09-23T11:37:08;29.40;82.50
7720;DHT22;3902;49.474;8.616;2022-09-23T11:39:43;29.70;78.20
7720;DHT22;3902;49.474;8.616;2022-09-23T11:42:20;29.80;76.70
7720;DHT22;3902;49.474;8.616;2022-09-23T11:44:51;29.70;73.00
7720;DHT22;3902;49.474;8.616;2022-09-23T11:47:28;29.50;73.70
7720;DHT22;3902;49.474;8.616;2022-09-23T11:50:03;29.50;75.10
7720;DHT22;3902;49.474;8.616;2022-09-23T11:52:40;29.60;74.90
7720;DHT22;3902;49.474;8.616;2022-09-23T11:57:48;30.10;72.20
7720;DHT22;3902;49.474;8.616;2022-09-23T12:00:23;30.10;69.60
7720;DHT22;3902;49.474;8.616;2022-09-23T12:03:07;29.60;69.80
7720;DHT22;3902;49.474;8.616;2022-09-23T12:05:40;29.80;71.00
7720;DHT22;3902;49.474;8.616;2022-09-23T12:08:27;30.10;70.30
7720;DHT22;3902;49.474;8.616;2022-09-23T12:14:12;30.20;71.20
7720;DHT22;3902;49.474;8.616;2022-09-23T12:21:55;31.10;69.20
7720;DHT22;3902;49.474;8.616;2022-09-23T12:24:46;31.20;68.30
7720;DHT22;3902;49.474;8.616;2022-09-23T12:27:27;31.40;68.60
7720;DHT22;3902;49.474;8.616;2022-09-23T12:30:01;31.10;64.00
7720;DHT22;3902;49.474;8.616;2022-09-23T12:32:29;30.90;66.10
7720;DHT22;3902;49.474;8.616;2022-09-23T12:34:55;30.80;67.20
7720;DHT22;3902;49.474;8.616;2022-09-23T12:37:37;30.90;66.20
7720;DHT22;3902;49.474;8.616;2022-09-23T12:40:27;30.90;65.80
7720;DHT22;3902;49.474;8.616;2022-09-23T12:42:56;30.80;64.90
7720;DHT22;3902;49.474;8.616;2022-09-23T12:45:33;30.50;64.20
7720;DHT22;3902;49.474;8.616;2022-09-23T12:48:04;29.70;65.10
7720;DHT22;3902;49.474;8.616;2022-09-23T12:56:00;29.10;68.20
7720;DHT22;3902;49.474;8.616;2022-09-23T12:58:59;28.70;68.10
7720;DHT22;3902;49.474;8.616;2022-09-23T13:01:25;28.60;69.60
7720;DHT22;3902;49.474;8.616;2022-09-23T13:03:56;28.90;69.70
7720;DHT22;3902;49.474;8.616;2022-09-23T13:07:06;29.10;70.10
7720;DHT22;3902;49.474;8.616;2022-09-23T13:09:55;29.80;69.50
7720;DHT22;3902;49.474;8.616;2022-09-23T13:12:29;29.80;67.00
7720;DHT22;3902;49.474;8.616;2022-09-23T13:14:58;29.90;67.10
7720;DHT22;3902;49.474;8.616;2022-09-23T13:17:38;29.80;67.40
7720;DHT22;3902;49.474;8.616;2022-09-23T13:25:20;28.80;66.40
7720;DHT22;3902;49.474;8.616;2022-09-23T13:27:52;29.10;66.70
7720;DHT22;3902;49.474;8.616;2022-09-23T13:30:20;29.60;67.80
7720;DHT22;3902;49.474;8.616;2022-09-23T13:33:10;29.90;66.20
7720;DHT22;3902;49.474;8.616;2022-09-23T13:35:43;30.20;65.80
7720;DHT22;3902;49.474;8.616;2022-09-23T13:40:43;29.90;64.30
7720;DHT22;3902;49.474;8.616;2022-09-23T13:43:17;29.60;65.30
7720;DHT22;3902;49.474;8.616;2022-09-23T13:45:45;28.60;66.80
7720;DHT22;3902;49.474;8.616;2022-09-23T13:48:13;28.30;67.20
7720;DHT22;3902;49.474;8.616;2022-09-23T13:50:49;27.80;67.20
7720;DHT22;3902;49.474;8.616;2022-09-23T13:53:24;27.20;68.30
7720;DHT22;3902;49.474;8.616;2022-09-23T13:56:06;26.80;70.80
7720;DHT22;3902;49.474;8.616;2022-09-23T13:58:35;26.00;69.40
7720;DHT22;3902;49.474;8.616;2022-09-23T14:01:01;25.30;71.30
7720;DHT22;3902;49.474;8.616;2022-09-23T14:03:31;25.30;73.40
7720;DHT22;3902;49.474;8.616;2022-09-23T14:05:59;25.20;73.30
7720;DHT22;3902;49.474;8.616;2022-09-23T14:08:25;24.70;72.90
7720;DHT22;3902;49.474;8.616;2022-09-23T14:10:51;24.70;73.50
7720;DHT22;3902;49.474;8.616;2022-09-23T14:13:27;24.80;74.70
7720;DHT22;3902;49.474;8.616;2022-09-23T14:15:57;25.00;74.50
7720;DHT22;3902;49.474;8.616;2022-09-23T14:18:34;25.30;74.30
7720;DHT22;3902;49.474;8.616;2022-09-23T14:21:00;25.30;72.50
7720;DHT22;3902;49.474;8.616;2022-09-23T14:23:26;25.50;72.00
7720;DHT22;3902;49.474;8.616;2022-09-23T14:25:53;25.80;71.00
7720;DHT22;3902;49.474;8.616;2022-09-23T14:28:21;25.70;71.60
7720;DHT22;3902;49.474;8.616;2022-09-23T14:30:49;25.90;71.70
7720;DHT22;3902;49.474;8.616;2022-09-23T14:33:27;26.20;72.10
7720;DHT22;3902;49.474;8.616;2022-09-23T14:36:02;26.50;71.40
7720;DHT22;3902;49.474;8.616;2022-09-23T14:38:30;27.10;71.20
7720;DHT22;3902;49.474;8.616;2022-09-23T14:41:24;26.80;68.80
7720;DHT22;3902;49.474;8.616;2022-09-23T14:43:55;27.20;70.50
7720;DHT22;3902;49.474;8.616;2022-09-23T14:46:24;27.60;70.60
7720;DHT22;3902;49.474;8.616;2022-09-23T14:51:47;27.50;67.70
7720;DHT22;3902;49.474;8.616;2022-09-23T14:54:25;27.10;68.00
7720;DHT22;3902;49.474;8.616;2022-09-23T14:56:53;26.90;68.80
7720;DHT22;3902;49.474;8.616;2022-09-23T14:59:34;27.30;70.90
7720;DHT22;3902;49.474;8.616;2022-09-23T15:02:01;27.30;70.40
7720;DHT22;3902;49.474;8.616;2022-09-23T15:04:29;26.70;69.00
7720;DHT22;3902;49.474;8.616;2022-09-23T15:07:14;26.30;70.90
7720;DHT22;3902;49.474;8.616;2022-09-23T15:09:41;26.10;72.20
7720;DHT22;3902;49.474;8.616;2022-09-23T15:12:16;25.60;71.50
7720;DHT22;3902;49.474;8.616;2022-09-23T15:14:49;25.30;73.00
7720;DHT22;3902;49.474;8.616;2022-09-23T15:17:36;25.10;73.20
7720;DHT22;3902;49.474;8.616;2022-09-23T15:20:07;24.90;74.50
7720;DHT22;3902;49.474;8.616;2022-09-23T15:22:43;24.70;74.70
7720;DHT22;3902;49.474;8.616;2022-09-23T15:25:41;24.50;75.80
7720;DHT22;3902;49.474;8.616;2022-09-23T15:30:36;24.00;77.20
7720;DHT22;3902;49.474;8.616;2022-09-23T15:33:02;23.80;76.50
7720;DHT22;3902;49.474;8.616;2022-09-23T15:35:29;23.70;77.70
7720;DHT22;3902;49.474;8.616;2022-09-23T15:37:58;23.00;76.70
7720;DHT22;3902;49.474;8.616;2022-09-23T15:40:32;22.80;78.00
7720;DHT22;3902;49.474;8.616;2022-09-23T15:42:59;22.70;78.80
7720;DHT22;3902;49.474;8.616;2022-09-23T15:45:36;22.60;79.70
7720;DHT22;3902;49.474;8.616;2022-09-23T15:48:10;22.60;80.50
7720;DHT22;3902;49.474;8.616;2022-09-23T15:50:37;22.60;81.00
7720;DHT22;3902;49.474;8.616;2022-09-23T15:53:04;22.60;81.80
7720;DHT22;3902;49.474;8.616;2022-09-23T15:55:30;22.50;82.60
7720;DHT22;3902;49.474;8.616;2022-09-23T15:57:56;22.40;82.90
7720;DHT22;3902;49.474;8.616;2022-09-23T16:00:21;22.40;82.60
7720;DHT22;3902;49.474;8.616;2022-09-23T16:02:48;22.40;83.90
7720;DHT22;3902;49.474;8.616;2022-09-23T16:05:43;22.30;86.60
7720;DHT22;3902;49.474;8.616;2022-09-23T16:08:09;22.20;87.10
7720;DHT22;3902;49.474;8.616;2022-09-23T16:10:35;22.20;88.00
7720;DHT22;3902;49.474;8.616;2022-09-23T16:13:03;22.10;88.10
7720;DHT22;3902;49.474;8.616;2022-09-23T16:15:32;22.00;87.40
7720;DHT22;3902;49.474;8.616;2022-09-23T16:17:59;21.90;88.30
7720;DHT22;3902;49.474;8.616;2022-09-23T16:20:26;21.80;87.50
7720;DHT22;3902;49.474;8.616;2022-09-23T16:23:01;21.70;89.60
7720;DHT22;3902;49.474;8.616;2022-09-23T16:25:29;21.60;88.80
7720;DHT22;3902;49.474;8.616;2022-09-23T16:27:56;21.60;88.90
7720;DHT22;3902;49.474;8.616;2022-09-23T16:30:23;21.50;89.30
7720;DHT22;3902;49.474;8.616;2022-09-23T16:32:49;21.40;90.00
7720;DHT22;3902;49.474;8.616;2022-09-23T16:35:17;21.30;90.00
7720;DHT22;3902;49.474;8.616;2022-09-23T16:37:44;21.20;90.20
7720;DHT22;3902;49.474;8.616;2022-09-23T16:40:11;21.10;90.80
7720;DHT22;3902;49.474;8.616;2022-09-23T16:42:39;21.10;90.80
7720;DHT22;3902;49.474;8.616;2022-09-23T16:45:05;21.10;91.10
7720;DHT22;3902;49.474;8.616;2022-09-23T16:47:31;21.10;91.70
7720;DHT22;3902;49.474;8.616;2022-09-23T16:49:56;21.00;92.40
7720;DHT22;3902;49.474;8.616;2022-09-23T16:52:22;21.00;92.50
7720;DHT22;3902;49.474;8.616;2022-09-23T16:54:47;20.90;92.60
7720;DHT22;3902;49.474;8.616;2022-09-23T16:57:13;20.80;92.90
7720;DHT22;3902;49.474;8.616;2022-09-23T16:59:39;20.80;93.60
7720;DHT22;3902;49.474;8.616;2022-09-23T17:02:23;20.70;94.00
7720;DHT22;3902;49.474;8.616;2022-09-23T17:05:07;20.70;94.10
7720;DHT22;3902;49.474;8.616;2022-09-23T17:07:32;20.60;94.40
7720;DHT22;3902;49.474;8.616;2022-09-23T17:09:58;20.60;94.70
7720;DHT22;3902;49.474;8.616;2022-09-23T17:12:27;20.50;95.30
7720;DHT22;3902;49.474;8.616;2022-09-23T17:14:54;20.40;95.80
7720;DHT22;3902;49.474;8.616;2022-09-23T17:17:19;20.40;96.20
7720;DHT22;3902;49.474;8.616;2022-09-23T17:19:45;20.30;96.70
7720;DHT22;3902;49.474;8.616;2022-09-23T17:22:11;20.20;97.00
7720;DHT22;3902;49.474;8.616;2022-09-23T17:24:36;20.20;97.40
7720;DHT22;3902;49.474;8.616;2022-09-23T17:27:02;20.10;97.60
7720;DHT22;3902;49.474;8.616;2022-09-23T17:29:27;20.10;97.80
7720;DHT22;3902;49.474;8.616;2022-09-23T17:31:53;20.00;98.20
7720;DHT22;3902;49.474;8.616;2022-09-23T17:34:19;19.90;98.50
7720;DHT22;3902;49.474;8.616;2022-09-23T17:36:44;19.90;99.30
7720;DHT22;3902;49.474;8.616;2022-09-23T17:39:10;19.80;99.70
7720;DHT22;3902;49.474;8.616;2022-09-23T17:41:35;19.80;99.90
7720;DHT22;3902;49.474;8.616;2022-09-23T17:44:03;19.70;99.90
7720;DHT22;3902;49.474;8.616;2022-09-23T17:46:29;19.60;99.90
7720;DHT22;3902;49.474;8.616;2022-09-23T17:48:55;19.60;99.90
7720;DHT22;3902;49.474;8.616;2022-09-23T17:51:21;19.60;99.90
7720;DHT22;3902;49.474;8.616;2022-09-23T17:53:48;19.50;99.90
7720;DHT22;3902;49.474;8.616;2022-09-23T17:56:23;19.50;99.90
7720;DHT22;3902;49.474;8.616;2022-09-23T17:58:59;19.40;99.90
7720;DHT22;3902;49.474;8.616;2022-09-23T18:01:26;19.40;99.90
7720;DHT22;3902;49.474;8.616;2022-09-23T18:03:59;19.30;99.90
7720;DHT22;3902;49.474;8.616;2022-09-23T18:06:29;19.30;99.90
7720;DHT22;3902;49.474;8.616;2022-09-23T18:08:57;19.20;99.90
7720;DHT22;3902;49.474;8.616;2022-09-23T18:11:27;19.10;99.90
7720;DHT22;3902;49.474;8.616;2022-09-23T18:16:25;19.10;99.90